Time;durP1;ratioP1;P1;durP2;ratioP2;P2;SDS_P1;SDS_P2;PMS_P1;PMS_P2;Temp;Humidity;BMP_temperature;BMP_pressure;BME280_temperature;BME280_humidity;BME280_pressure;Samples;Min_cycle;Max_cycle;Signal;HPM_P1;HPM_P2
2022/07/28 00:01:10;;;;;;;14.30;12.80;;;;;;;18.46;68.72;97291.84;1850345;77;25662;-78
2022/07/28 00:03:36;;;;;;;17.07;11.68;;;;;;;18.46;68.79;97290.48;1850733;77;26043;-78
2022/07/28 00:06:03;;;;;;;16.00;12.13;;;;;;;18.46;68.92;97298.13;1850849;76;25748;-78
2022/07/28 00:08:30;;;;;;;15.80;11.48;;;;;;;18.46;68.98;97297.31;1850775;77;27431;-81
2022/07/28 00:10:56;;;;;;;13.80;11.25;;;;;;;18.47;68.99;97303.05;1850690;76;25413;-78
2022/07/28 00:13:23;;;;;;;19.10;11.75;;;;;;;18.47;68.98;97300.33;1850736;77;25164;-77
2022/07/28 00:15:49;;;;;;;12.93;11.53;;;;;;;18.46;69.08;97304.14;1850676;77;25918;-77
2022/07/28 00:18:16;;;;;;;13.00;10.78;;;;;;;18.44;69.19;97302.20;1850784;77;25701;-80
2022/07/28 00:20:42;;;;;;;14.75;12.00;;;;;;;18.43;69.26;97301.92;1850520;77;27399;-78
2022/07/28 00:23:09;;;;;;;14.28;12.00;;;;;;;18.42;69.38;97301.64;1850721;77;25685;-78
2022/07/28 00:25:35;;;;;;;15.70;11.70;;;;;;;18.40;69.47;97301.91;1850775;77;25715;-78
2022/07/28 00:28:02;;;;;;;16.12;12.15;;;;;;;18.39;69.52;97306.27;1850786;77;26027;-79
2022/07/28 00:30:29;;;;;;;13.35;11.43;;;;;;;18.38;69.56;97300.52;1850844;77;25431;-78
2022/07/28 00:32:55;;;;;;;13.05;11.63;;;;;;;18.37;69.54;97302.42;1850537;77;28246;-78
2022/07/28 00:35:22;;;;;;;12.88;10.43;;;;;;;18.36;69.59;97304.33;1850550;77;25689;-77
2022/07/28 00:37:49;;;;;;;13.48;11.80;;;;;;;18.36;69.62;97301.59;1850657;77;25729;-77
2022/07/28 00:40:15;;;;;;;12.68;11.10;;;;;;;18.36;69.66;97303.51;1850771;77;25962;-79
2022/07/28 00:42:42;;;;;;;15.23;10.90;;;;;;;18.33;69.67;97296.69;1850579;77;25780;-78
2022/07/28 00:45:10;;;;;;;15.85;11.35;;;;;;;18.34;69.72;97294.78;1850751;77;27410;-78
2022/07/28 00:47:36;;;;;;;14.35;11.48;;;;;;;18.32;69.76;97294.21;1850627;77;25642;-77
2022/07/28 00:50:05;;;;;;;16.07;11.53;;;;;;;18.31;69.79;97297.48;1850738;77;25703;-77
2022/07/28 00:52:32;;;;;;;14.40;11.05;;;;;;;18.29;69.81;97303.75;1850756;77;26682;-78
2022/07/28 00:54:58;;;;;;;15.95;11.90;;;;;;;18.29;69.82;97302.39;1850461;77;25689;-77
2022/07/28 00:57:25;;;;;;;13.75;11.93;;;;;;;18.27;69.83;97303.73;1850719;77;27444;-78
2022/07/28 00:59:51;;;;;;;16.12;11.57;;;;;;;18.25;69.98;97308.08;1850547;77;25735;-78
2022/07/28 01:02:18;;;;;;;14.15;11.22;;;;;;;18.20;70.13;97310.80;1850678;77;25638;-81
2022/07/28 01:04:44;;;;;;;16.27;12.25;;;;;;;18.13;70.25;97303.89;1850690;77;26025;-78
2022/07/28 01:07:16;;;;;;;14.47;11.43;;;;;;;18.07;70.37;97305.78;1850701;77;25686;-78
2022/07/28 01:09:57;;;;;;;14.65;11.73;;;;;;;18.03;70.38;97312.84;1842237;76;27353;-78
2022/07/28 01:12:50;;;;;;;13.43;11.12;;;;;;;18.03;70.54;97312.02;1764539;81;26542;-78
2022/07/28 01:15:27;;;;;;;15.03;11.97;;;;;;;18.03;70.59;97314.20;1765009;81;25777;-79
2022/07/28 01:18:06;;;;;;;13.18;11.78;;;;;;;18.02;70.74;97319.38;1764657;81;26881;-77
2022/07/28 01:20:54;;;;;;;15.23;12.13;;;;;;;18.00;70.78;97325.64;1764885;81;25753;-78
2022/07/28 01:23:54;;;;;;;13.18;10.55;;;;;;;18.00;70.81;97324.28;1761979;80;27382;-78
2022/07/28 01:26:44;;;;;;;16.17;10.15;;;;;;;17.99;70.71;97318.56;1764797;79;25953;-78
2022/07/28 01:29:24;;;;;;;11.90;9.73;;;;;;;17.94;70.52;97325.33;1761212;81;25987;-80
2022/07/28 01:32:02;;;;;;;13.18;8.70;;;;;;;17.92;70.54;97329.69;1753346;81;26624;-77
2022/07/28 01:34:40;;;;;;;10.30;7.58;;;;;;;17.90;70.57;97331.02;1753671;80;25721;-79
2022/07/28 01:37:13;;;;;;;9.95;7.80;;;;;;;17.90;70.36;97335.94;1753394;81;27373;-77
2022/07/28 01:39:41;;;;;;;10.20;7.30;;;;;;;17.87;70.15;97330.99;1731395;81;25909;-80
2022/07/28 01:42:12;;;;;;;8.50;6.78;;;;;;;17.87;70.24;97327.47;1756803;81;25833;-78
2022/07/28 01:44:43;;;;;;;11.05;7.08;;;;;;;17.87;70.15;97328.83;1756915;81;26046;-78
2022/07/28 01:47:11;;;;;;;10.25;6.97;;;;;;;17.86;70.17;97325.28;1756465;80;25745;-82
2022/07/28 01:49:39;;;;;;;13.30;7.37;;;;;;;17.84;69.92;97319.25;1756726;79;28065;-77
2022/07/28 01:52:08;;;;;;;8.70;6.25;;;;;;;17.83;69.88;97315.41;1756607;81;25631;-78
2022/07/28 01:54:38;;;;;;;7.37;5.50;;;;;;;17.81;69.83;97306.65;1756650;80;26372;-80
2022/07/28 01:57:07;;;;;;;10.88;5.12;;;;;;;17.77;69.52;97309.06;1756783;80;26009;-80
2022/07/28 01:59:36;;;;;;;7.83;4.10;;;;;;;17.74;69.13;97312.88;1756659;81;26439;-80
2022/07/28 02:02:04;;;;;;;5.95;3.83;;;;;;;17.72;68.65;97315.03;1756946;81;27451;-79
2022/07/28 02:04:33;;;;;;;6.08;3.52;;;;;;;17.66;68.00;97317.42;1756722;81;25769;-77
2022/07/28 02:07:01;;;;;;;7.97;3.72;;;;;;;17.63;67.86;97322.31;1756744;81;25811;-78
2022/07/28 02:09:30;;;;;;;5.50;3.85;;;;;;;17.63;67.75;97322.84;1785246;79;26089;-79
2022/07/28 02:11:57;;;;;;;4.87;3.08;;;;;;;17.67;67.67;97320.44;1792383;78;25770;-78
2022/07/28 02:14:27;;;;;;;6.22;3.17;;;;;;;17.69;67.44;97322.38;1821982;77;27409;-78
2022/07/28 02:16:58;;;;;;;7.12;3.10;;;;;;;17.70;67.22;97324.02;1822169;78;25464;-77
2022/07/28 02:19:27;;;;;;;5.00;2.92;;;;;;;17.71;67.11;97322.94;1822235;78;25696;-77
2022/07/28 02:21:54;;;;;;;10.13;3.40;;;;;;;17.73;66.95;97326.24;1821963;77;25734;-77
2022/07/28 02:24:27;;;;;;;6.22;3.60;;;;;;;17.73;66.92;97322.14;1822058;78;25583;-77
2022/07/28 02:27:04;;;;;;;5.10;3.20;;;;;;;17.72;66.85;97325.41;1822044;78;27448;-80
2022/07/28 02:29:35;;;;;;;5.42;3.10;;;;;;;17.74;66.75;97329.26;1751637;81;25699;-78
2022/07/28 02:32:06;;;;;;;4.33;2.87;;;;;;;17.75;66.62;97329.55;1751457;81;25417;-78
2022/07/28 02:34:37;;;;;;;6.05;2.92;;;;;;;17.76;66.44;97339.35;1754800;81;27030;-80
2022/07/28 02:37:07;;;;;;;6.00;3.00;;;;;;;17.75;66.36;97330.91;1754737;81;25742;-78
2022/07/28 02:39:44;;;;;;;4.78;2.58;;;;;;;17.74;66.05;97336.08;1754847;81;27442;-77
2022/07/28 02:42:18;;;;;;;6.53;3.00;;;;;;;17.73;65.88;97337.16;1752583;81;25833;-78
2022/07/28 02:44:52;;;;;;;5.72;3.17;;;;;;;17.73;65.83;97330.34;1754946;81;25839;-77
2022/07/28 02:47:23;;;;;;;4.50;3.25;;;;;;;17.74;66.14;97329.26;1693575;84;26372;-79
2022/07/28 02:49:51;;;;;;;4.08;2.70;;;;;;;17.72;66.19;97335.51;1693738;84;25824;-78
2022/07/28 02:52:21;;;;;;;4.92;3.05;;;;;;;17.71;66.13;97327.86;1693594;84;27414;-77
2022/07/28 02:54:50;;;;;;;5.50;2.77;;;;;;;17.70;65.95;97334.41;1692961;84;26020;-77
2022/07/28 02:57:18;;;;;;;4.25;2.62;;;;;;;17.70;65.79;97332.21;1691698;84;25309;-77
2022/07/28 02:59:46;;;;;;;5.42;2.70;;;;;;;17.72;65.51;97328.69;1691602;84;26054;-78
2022/07/28 03:02:14;;;;;;;5.92;3.42;;;;;;;17.68;65.25;97335.73;1691766;84;25916;-77
2022/07/28 03:04:57;;;;;;;6.15;2.65;;;;;;;17.58;64.73;97341.35;1691810;84;27439;-78
2022/07/28 03:07:32;;;;;;;5.90;2.85;;;;;;;17.53;64.91;97343.19;1713928;83;25722;-78
2022/07/28 03:09:59;;;;;;;4.78;2.95;;;;;;;17.49;65.15;97347.53;1697575;84;25716;-80
2022/07/28 03:12:26;;;;;;;4.72;2.70;;;;;;;17.46;65.37;97342.58;1726146;83;26060;-78
2022/07/28 03:14:53;;;;;;;6.25;2.60;;;;;;;17.42;65.30;97347.72;1697759;84;26895;-78
2022/07/28 03:17:21;;;;;;;13.93;3.33;;;;;;;17.38;65.20;97353.96;1726214;83;28127;-78
2022/07/28 03:19:47;;;;;;;5.58;2.80;;;;;;;17.39;65.16;97355.61;1697756;84;25860;-77
2022/07/28 03:22:14;;;;;;;7.40;3.25;;;;;;;17.40;65.24;97362.69;1725941;83;25845;-81
2022/07/28 03:24:47;;;;;;;8.15;2.90;;;;;;;17.39;65.25;97359.70;1740989;80;26097;-77
2022/07/28 03:27:34;;;;;;;5.75;3.10;;;;;;;17.42;65.23;97363.27;1817548;78;25994;-77
2022/07/28 03:30:06;;;;;;;7.78;3.17;;;;;;;17.43;65.08;97367.11;1751812;81;26796;-77
2022/07/28 03:32:36;;;;;;;4.30;2.77;;;;;;;17.44;64.92;97371.48;1722512;83;25555;-78
2022/07/28 03:35:04;;;;;;;6.78;2.52;;;;;;;17.45;64.81;97371.77;1681125;85;25738;-77
2022/07/28 03:37:37;;;;;;;5.60;3.40;;;;;;;17.48;64.77;97374.53;1681587;85;26945;-76
2022/07/28 03:40:08;;;;;;;6.25;3.33;;;;;;;17.50;64.80;97372.37;1608640;89;25799;-77
2022/07/28 03:42:36;;;;;;;4.42;2.72;;;;;;;17.48;64.75;97375.90;1608745;89;27398;-76
2022/07/28 03:45:04;;;;;;;6.72;3.17;;;;;;;17.50;64.67;97371.84;1608690;89;25791;-76
2022/07/28 03:47:31;;;;;;;6.35;3.52;;;;;;;17.52;64.49;97376.48;1608457;89;37065;-76
2022/07/28 03:49:58;;;;;;;8.55;3.10;;;;;;;17.52;64.46;97379.20;1608707;89;26049;-75
2022/07/28 03:52:24;;;;;;;3.90;2.83;;;;;;;17.50;64.56;97379.20;1608393;89;25886;-76
2022/07/28 03:54:51;;;;;;;9.00;3.83;;;;;;;17.46;64.62;97381.61;1608961;88;27341;-76
2022/07/28 03:57:17;;;;;;;7.50;3.20;;;;;;;17.47;64.62;97383.27;1609507;89;25572;-76
2022/07/28 03:59:44;;;;;;;5.55;2.95;;;;;;;17.44;64.63;97375.58;1609566;89;25856;-76
2022/07/28 04:02:10;;;;;;;7.83;3.22;;;;;;;17.44;64.83;97382.40;1609523;89;26745;-76
2022/07/28 04:04:37;;;;;;;6.37;3.30;;;;;;;17.46;64.88;97380.25;1609761;89;25895;-76
2022/07/28 04:07:04;;;;;;;5.08;3.00;;;;;;;17.47;64.94;97381.89;1609740;89;27467;-76
2022/07/28 04:09:30;;;;;;;6.72;3.85;;;;;;;17.48;65.07;97387.64;1609645;89;25682;-76
2022/07/28 04:11:57;;;;;;;9.50;3.60;;;;;;;17.49;65.12;97386.56;1609671;89;25923;-75
2022/07/28 04:14:23;;;;;;;5.90;2.95;;;;;;;17.51;65.17;97395.29;1609366;88;26847;-75
2022/07/28 04:16:50;;;;;;;8.65;3.37;;;;;;;17.48;65.33;97389.00;1609696;89;25892;-76
2022/07/28 04:19:17;;;;;;;5.12;2.90;;;;;;;17.49;65.49;97389.83;1609624;89;28172;-75
2022/07/28 04:21:43;;;;;;;5.03;2.98;;;;;;;17.52;65.57;97390.12;1609459;89;26125;-76
2022/07/28 04:24:10;;;;;;;7.03;3.15;;;;;;;17.54;65.65;97390.70;1597309;89;26581;-74
2022/07/28 04:26:37;;;;;;;4.60;3.27;;;;;;;17.58;65.65;97394.58;1574877;88;26091;-76
2022/07/28 04:29:04;;;;;;;5.85;3.12;;;;;;;17.60;65.73;97398.41;1614030;88;25764;-76
2022/07/28 04:31:31;;;;;;;3.55;2.60;;;;;;;17.62;65.70;97394.36;1663879;85;27449;-76
2022/07/28 04:33:58;;;;;;;5.97;3.20;;;;;;;17.63;65.49;97394.64;1680797;85;25353;-76
2022/07/28 04:36:25;;;;;;;5.42;3.87;;;;;;;17.65;65.44;97391.66;1727798;78;25344;-76
2022/07/28 04:38:52;;;;;;;6.92;3.90;;;;;;;17.65;65.49;97395.75;1822073;78;26035;-75
2022/07/28 04:41:19;;;;;;;6.40;3.83;;;;;;;17.68;65.40;97391.69;1822404;78;25207;-76
2022/07/28 04:43:45;;;;;;;5.12;3.90;;;;;;;17.67;65.54;97399.05;1822206;78;27402;-76
2022/07/28 04:46:12;;;;;;;9.18;4.15;;;;;;;17.68;65.62;97394.42;1822153;78;25677;-76
2022/07/28 04:48:38;;;;;;;6.85;3.67;;;;;;;17.67;65.75;97392.23;1822088;78;25649;-77
2022/07/28 04:51:05;;;;;;;6.45;3.65;;;;;;;17.68;65.84;97397.98;1822183;78;25974;-76
2022/07/28 04:53:31;;;;;;;6.70;3.65;;;;;;;17.71;65.98;97402.93;1822302;78;25682;-77
2022/07/28 04:55:58;;;;;;;7.75;4.30;;;;;;;17.72;65.92;97401.03;1814735;78;28204;-76
2022/07/28 04:58:24;;;;;;;7.25;4.22;;;;;;;17.72;65.79;97405.95;1788676;80;25710;-76
2022/07/28 05:00:51;;;;;;;6.25;3.77;;;;;;;17.72;65.79;97406.48;1809265;79;25644;-76
2022/07/28 05:03:18;;;;;;;8.08;4.30;;;;;;;17.73;65.80;97408.14;1809315;79;26002;-76
2022/07/28 05:05:45;;;;;;;10.13;4.05;;;;;;;17.74;65.91;97409.79;1786718;80;25878;-77
2022/07/28 05:08:11;;;;;;;6.42;4.00;;;;;;;17.72;65.81;97410.58;1786682;80;27361;-76
2022/07/28 05:10:38;;;;;;;9.53;4.03;;;;;;;17.71;65.89;97409.76;1786672;80;25715;-76
2022/07/28 05:13:06;;;;;;;7.70;4.33;;;;;;;17.71;65.89;97407.56;1786469;80;25682;-76
2022/07/28 05:15:33;;;;;;;7.72;3.72;;;;;;;17.74;65.96;97409.79;1786524;80;26015;-76
2022/07/28 05:18:00;;;;;;;7.50;4.22;;;;;;;17.76;65.95;97408.97;1786792;80;25785;-76
2022/07/28 05:20:26;;;;;;;6.05;3.60;;;;;;;17.77;65.94;97409.25;1786563;80;27415;-77
2022/07/28 05:22:53;;;;;;;6.95;3.70;;;;;;;17.80;65.85;97411.48;1786439;79;25730;-76
2022/07/28 05:25:22;;;;;;;9.70;4.00;;;;;;;17.83;65.75;97407.70;1786677;80;25787;-76
2022/07/28 05:27:49;;;;;;;6.17;3.90;;;;;;;17.82;65.77;97403.86;1786747;79;26070;-76
2022/07/28 05:30:17;;;;;;;8.90;4.20;;;;;;;17.82;65.88;97407.95;1786709;80;25724;-77
2022/07/28 05:32:44;;;;;;;7.72;4.10;;;;;;;17.85;66.13;97412.37;1787005;80;27397;-77
2022/07/28 05:35:11;;;;;;;6.67;4.12;;;;;;;17.89;66.24;97413.48;1786617;80;25858;-76
2022/07/28 05:37:38;;;;;;;9.03;3.95;;;;;;;17.94;66.32;97405.89;1786634;80;25749;-76
2022/07/28 05:40:14;;;;;;;7.42;3.60;;;;;;;17.98;66.21;97409.77;1786649;80;26002;-77
2022/07/28 05:42:42;;;;;;;9.45;3.85;;;;;;;18.00;66.02;97410.30;1786755;80;25670;-76
2022/07/28 05:45:10;;;;;;;7.55;3.72;;;;;;;18.05;65.97;97416.38;1786626;80;28262;-77
2022/07/28 05:47:51;;;;;;;8.25;4.08;;;;;;;18.09;65.70;97417.52;1786236;80;25690;-76
2022/07/28 05:50:21;;;;;;;7.65;3.65;;;;;;;18.13;65.45;97417.25;1786556;79;25830;-78
2022/07/28 05:52:48;;;;;;;7.75;3.50;;;;;;;18.19;65.38;97428.53;1786629;80;26036;-77
2022/07/28 05:55:16;;;;;;;10.63;3.83;;;;;;;18.24;65.29;97432.12;1787734;79;25236;-77
2022/07/28 05:57:43;;;;;;;7.60;3.65;;;;;;;18.28;65.07;97437.89;1797028;79;27377;-76
2022/07/28 06:00:15;;;;;;;7.50;3.40;;;;;;;18.30;64.92;97436.55;1796953;79;25697;-76
2022/07/28 06:02:44;;;;;;;8.03;3.55;;;;;;;18.31;64.92;97438.20;1692865;83;25284;-76
2022/07/28 06:05:12;;;;;;;6.37;2.87;;;;;;;18.34;64.79;97442.34;1692813;84;26002;-78
2022/07/28 06:07:39;;;;;;;4.03;2.58;;;;;;;18.37;64.56;97445.89;1692654;83;26382;-76
2022/07/28 06:10:07;;;;;;;8.30;3.17;;;;;;;18.39;64.63;97440.99;1692773;83;27445;-76
2022/07/28 06:12:43;;;;;;;5.67;3.25;;;;;;;18.44;64.42;97442.95;1692767;83;25460;-76
2022/07/28 06:15:16;;;;;;;6.55;2.95;;;;;;;18.50;64.32;97446.00;1648949;86;25886;-76
2022/07/28 06:17:43;;;;;;;5.50;2.87;;;;;;;18.55;64.09;97448.79;1635602;87;26573;-77
2022/07/28 06:20:12;;;;;;;7.70;3.25;;;;;;;18.61;64.06;97447.76;1631784;87;25851;-76
2022/07/28 06:22:48;;;;;;;5.20;2.83;;;;;;;18.67;63.84;97442.63;1631635;87;28294;-77
2022/07/28 06:25:21;;;;;;;8.23;2.72;;;;;;;18.69;63.62;97450.86;1605796;89;25759;-76
2022/07/28 06:27:49;;;;;;;;;;;;;;;18.70;63.41;97443.48;1558414;92;25395;-76
2022/07/28 06:30:17;;;;;;;7.80;2.77;;;;;;;18.68;62.66;97442.91;1556145;92;26063;-77
2022/07/28 06:32:44;;;;;;;4.05;2.50;;;;;;;18.68;63.08;97445.64;1559860;91;25951;-76
2022/07/28 06:35:15;;;;;;;8.55;3.17;;;;;;;18.74;63.09;97440.48;1570006;91;27402;-76
2022/07/28 06:37:46;;;;;;;4.45;2.83;;;;;;;18.78;62.98;97439.42;1556117;92;25959;-76
2022/07/28 06:40:15;;;;;;;5.43;2.43;;;;;;;18.82;62.83;97443.29;1556262;92;26664;-75
2022/07/28 06:42:42;;;;;;;4.50;2.62;;;;;;;18.87;62.64;97445.50;1556197;92;26086;-76
2022/07/28 06:45:11;;;;;;;7.55;2.60;;;;;;;18.95;62.27;97449.13;1555980;92;25746;-76
2022/07/28 06:47:37;;;;;;;3.77;2.60;;;;;;;19.01;62.24;97449.97;1555913;91;28330;-76
2022/07/28 06:50:06;;;;;;;6.65;2.75;;;;;;;19.10;62.41;97444.81;1555745;92;25879;-76
2022/07/28 06:52:35;;;;;;;5.95;2.70;;;;;;;19.16;62.01;97441.86;1555809;92;25792;-77
2022/07/28 06:55:04;;;;;;;7.40;2.85;;;;;;;19.22;61.90;97446.25;1555870;92;26963;-75
2022/07/28 06:57:32;;;;;;;7.08;2.98;;;;;;;19.27;61.81;97445.47;1550695;92;25810;-76
2022/07/28 07:00:01;;;;;;;8.78;3.27;;;;;;;19.34;61.76;97452.88;1591738;88;27019;-76
2022/07/28 07:02:28;;;;;;;6.50;2.87;;;;;;;19.40;61.51;97455.94;1661431;86;25733;-76
2022/07/28 07:04:55;;;;;;;3.70;2.30;;;;;;;19.47;61.37;97442.81;1661288;86;25813;-76
2022/07/28 07:07:22;;;;;;;5.92;2.80;;;;;;;19.56;61.31;97448.08;1661565;86;25477;-77
2022/07/28 07:09:50;;;;;;;4.22;2.50;;;;;;;19.65;61.29;97448.41;1661680;86;25802;-76
2022/07/28 07:12:16;;;;;;;6.33;3.17;;;;;;;19.71;61.44;97452.25;1667574;84;27348;-76
2022/07/28 07:14:43;;;;;;;5.10;2.83;;;;;;;19.76;61.55;97452.28;1701386;83;25937;-76
2022/07/28 07:17:09;;;;;;;3.83;3.00;;;;;;;19.85;61.63;97447.64;1726154;83;25719;-75
2022/07/28 07:19:36;;;;;;;6.12;2.70;;;;;;;19.93;61.49;97448.48;1726107;83;26741;-76
2022/07/28 07:22:02;;;;;;;3.62;2.83;;;;;;;19.95;60.93;97451.23;1733227;82;25750;-75
2022/07/28 07:24:29;;;;;;;5.30;2.60;;;;;;;19.99;60.83;97451.52;1785901;78;27361;-75
2022/07/28 07:26:56;;;;;;;9.68;2.90;;;;;;;20.05;60.71;97446.31;1836798;78;25707;-75
2022/07/28 07:29:23;;;;;;;7.30;2.70;;;;;;;20.08;60.81;97448.52;1837055;78;25696;-77
2022/07/28 07:31:50;;;;;;;6.90;2.70;;;;;;;20.15;60.59;97454.58;1836923;78;26045;-76
2022/07/28 07:34:17;;;;;;;5.42;2.70;;;;;;;20.22;60.48;97451.02;1836554;78;25704;-76
2022/07/28 07:36:44;;;;;;;4.92;2.30;;;;;;;20.26;60.16;97452.67;1836919;78;27393;-76
2022/07/28 07:39:10;;;;;;;6.58;3.02;;;;;;;20.31;60.18;97448.01;1837178;78;25675;-75
2022/07/28 07:41:37;;;;;;;6.25;2.90;;;;;;;20.39;59.85;97444.78;1837072;76;25396;-76
2022/07/28 07:44:03;;;;;;;4.37;2.65;;;;;;;20.48;59.61;97444.50;1837049;78;26033;-75
2022/07/28 07:46:30;;;;;;;4.53;2.95;;;;;;;20.61;59.54;97445.88;1837211;78;25708;-76
2022/07/28 07:48:56;;;;;;;8.28;2.85;;;;;;;20.85;59.47;97444.77;1837153;78;27423;-76
2022/07/28 07:51:23;;;;;;;8.48;2.95;;;;;;;21.14;59.37;97438.93;1837145;78;25676;-76
2022/07/28 07:53:49;;;;;;;4.42;2.58;;;;;;;21.54;59.21;97439.39;1836984;78;25683;-77
2022/07/28 07:56:17;;;;;;;5.87;2.40;;;;;;;21.98;58.86;97440.58;1834208;77;25967;-77
2022/07/28 07:58:43;;;;;;;3.92;2.08;;;;;;;22.44;58.26;97431.50;1827843;78;25855;-76
2022/07/28 08:01:11;;;;;;;5.12;2.70;;;;;;;22.86;57.64;97442.70;1827903;78;28165;-77
2022/07/28 08:03:38;;;;;;;6.15;2.27;;;;;;;23.24;57.23;97435.45;1827875;78;25689;-76
2022/07/28 08:06:05;;;;;;;5.15;2.52;;;;;;;23.67;56.71;97439.65;1828049;78;25658;-77
2022/07/28 08:08:31;;;;;;;3.40;2.20;;;;;;;24.10;55.31;97436.89;1827895;78;26022;-76
2022/07/28 08:10:58;;;;;;;3.65;2.05;;;;;;;24.32;55.34;97437.14;1827898;78;25664;-76
2022/07/28 08:13:24;;;;;;;8.00;2.40;;;;;;;24.64;55.20;97436.34;1827882;78;28258;-77
2022/07/28 08:15:51;;;;;;;5.40;2.70;;;;;;;25.07;55.12;97439.80;1827830;78;25700;-78
2022/07/28 08:18:17;;;;;;;6.20;2.40;;;;;;;25.43;53.74;97433.85;1827768;77;25665;-77
2022/07/28 08:20:44;;;;;;;5.55;2.02;;;;;;;25.69;53.29;97435.58;1827844;78;26220;-77
2022/07/28 08:23:10;;;;;;;3.67;2.22;;;;;;;25.98;52.57;97435.22;1827600;78;25758;-77
2022/07/28 08:25:37;;;;;;;4.55;2.12;;;;;;;26.12;50.61;97438.78;1827907;78;27390;-77
2022/07/28 08:28:04;;;;;;;4.35;2.00;;;;;;;26.07;50.17;97429.23;1827659;78;25693;-76
2022/07/28 08:30:31;;;;;;;3.87;2.27;;;;;;;26.09;50.74;97430.27;1827969;78;25210;-77
2022/07/28 08:32:57;;;;;;;4.05;2.20;;;;;;;26.37;49.75;97428.29;1827623;78;26326;-76
2022/07/28 08:35:25;;;;;;;4.17;1.75;;;;;;;26.65;50.09;97428.44;1827889;78;25432;-77
2022/07/28 08:37:51;;;;;;;4.55;1.87;;;;;;;27.06;49.96;97426.85;1827863;78;28207;-77
2022/07/28 08:40:18;;;;;;;3.80;2.33;;;;;;;27.49;49.86;97429.85;1827638;78;25701;-78
2022/07/28 08:43:12;;;;;;;3.08;1.92;;;;;;;27.90;49.25;97432.28;1827892;77;25672;-77
2022/07/28 08:45:43;;;;;;;3.62;2.10;;;;;;;28.25;48.84;97431.83;1827807;78;25990;-78
2022/07/28 08:48:11;;;;;;;4.75;2.10;;;;;;;28.62;47.93;97433.68;1827917;78;25653;-75
2022/07/28 08:50:38;;;;;;;7.85;2.77;;;;;;;28.99;47.97;97437.75;1827893;78;26815;-75
2022/07/28 08:53:07;;;;;;;5.37;2.25;;;;;;;29.36;47.48;97438.97;1827757;78;25722;-75
2022/07/28 08:55:35;;;;;;;2.72;1.98;;;;;;;29.72;46.96;97435.16;1827833;78;25715;-75
2022/07/28 08:58:03;;;;;;;3.80;1.98;;;;;;;29.98;45.19;97430.06;1827466;77;25921;-77
2022/07/28 09:00:30;;;;;;;4.72;2.58;;;;;;;30.06;44.09;97425.05;1827816;78;25872;-75
2022/07/28 09:02:57;;;;;;;5.20;2.37;;;;;;;30.20;44.64;97425.58;1827955;78;28184;-75
2022/07/28 09:05:24;;;;;;;4.20;1.90;;;;;;;30.32;44.22;97415.91;1827874;78;25594;-76
2022/07/28 09:07:53;;;;;;;5.72;2.02;;;;;;;30.08;42.76;97417.97;1827861;78;26314;-75
2022/07/28 09:10:21;;;;;;;3.65;2.17;;;;;;;30.24;43.75;97421.55;1827761;78;26062;-75
2022/07/28 09:12:47;;;;;;;3.67;2.20;;;;;;;30.43;43.23;97419.91;1827865;78;25806;-75
2022/07/28 09:15:14;;;;;;;5.28;2.33;;;;;;;30.29;42.98;97419.39;1827689;78;26860;-75
2022/07/28 09:17:41;;;;;;;3.90;2.30;;;;;;;29.92;42.51;97419.69;1827819;78;25681;-75
2022/07/28 09:20:10;;;;;;;4.70;2.30;;;;;;;29.57;42.42;97428.80;1827760;78;25650;-76
2022/07/28 09:22:56;;;;;;;5.58;2.30;;;;;;;29.11;42.55;97430.13;1827452;78;26035;-75
2022/07/28 09:25:23;;;;;;;3.67;2.70;;;;;;;28.65;42.66;97431.07;1810812;79;25848;-75
2022/07/28 09:27:50;;;;;;;6.03;3.05;;;;;;;28.24;42.80;97424.64;1810689;79;27485;-76
2022/07/28 09:30:30;;;;;;;5.28;2.80;;;;;;;28.00;43.02;97424.81;1810699;79;25730;-76
2022/07/28 09:33:25;;;;;;;3.55;2.42;;;;;;;27.78;43.49;97428.48;1746563;82;25836;-75
2022/07/28 09:35:55;;;;;;;4.85;2.87;;;;;;;27.60;43.48;97422.91;1747568;82;25975;-75
2022/07/28 09:38:24;;;;;;;4.97;2.90;;;;;;;27.15;43.28;97425.53;1747731;82;26658;-75
2022/07/28 09:41:05;;;;;;;7.75;3.30;;;;;;;26.87;43.98;97424.84;1747805;82;28237;-74
2022/07/28 09:43:36;;;;;;;6.50;3.12;;;;;;;26.81;44.53;97423.32;1747426;82;25275;-74
2022/07/28 09:46:05;;;;;;;4.30;3.17;;;;;;;26.77;44.69;97423.72;1747954;82;25740;-75
2022/07/28 09:48:32;;;;;;;5.45;3.55;;;;;;;26.64;44.80;97421.84;1747766;82;25994;-75
2022/07/28 09:51:12;;;;;;;4.87;2.72;;;;;;;26.51;45.00;97420.20;1747919;82;25678;-76
2022/07/28 09:53:40;;;;;;;4.30;3.02;;;;;;;26.48;45.26;97419.43;1747909;82;27432;-74
2022/07/28 09:56:08;;;;;;;4.50;3.08;;;;;;;26.48;45.50;97419.43;1747711;81;25775;-75
2022/07/28 09:58:36;;;;;;;5.97;3.35;;;;;;;26.46;45.45;97423.64;1759075;81;25754;-75
2022/07/28 10:01:11;;;;;;;5.15;3.10;;;;;;;26.43;45.72;97421.52;1758445;81;26030;-75
2022/07/28 10:03:42;;;;;;;7.15;3.33;;;;;;;26.39;45.49;97423.27;1758444;81;25910;-77
2022/07/28 10:06:15;;;;;;;4.95;3.30;;;;;;;26.37;45.76;97419.98;1758879;81;27284;-77
2022/07/28 10:08:47;;;;;;;4.20;3.30;;;;;;;26.36;45.82;97419.73;1660749;86;26591;-77
2022/07/28 10:11:17;;;;;;;6.55;3.65;;;;;;;26.56;46.25;97422.03;1681623;85;25838;-77
2022/07/28 10:14:03;;;;;;;5.22;3.08;;;;;;;26.93;46.08;97413.11;1651211;86;26713;-78
2022/07/28 10:16:34;;;;;;;3.85;2.98;;;;;;;27.14;45.17;97414.20;1563048;90;25943;-77
2022/07/28 10:19:04;;;;;;;4.37;2.90;;;;;;;27.40;45.60;97409.60;1522919;94;27656;-80
2022/07/28 10:21:39;;;;;;;4.97;2.60;;;;;;;27.62;45.35;97414.27;1522808;94;25803;-77
2022/07/28 10:24:08;;;;;;;4.50;3.33;;;;;;;27.81;45.00;97409.83;1518343;93;25838;-76
2022/07/28 10:26:43;;;;;;;6.00;3.30;;;;;;;27.95;44.73;97414.67;1518614;94;26036;-76
2022/07/28 10:29:17;;;;;;;4.72;2.90;;;;;;;28.14;44.39;97412.41;1521406;92;25944;-79
2022/07/28 10:31:53;;;;;;;5.40;3.00;;;;;;;28.41;44.52;97416.05;1518471;94;27494;-77
2022/07/28 10:34:41;;;;;;;8.58;2.92;;;;;;;28.64;43.97;97408.61;1518417;93;25672;-78
2022/07/28 10:37:12;;;;;;;4.62;3.72;;;;;;;28.77;43.73;97411.53;1518695;94;25873;-78
2022/07/28 10:39:41;;;;;;;;;;;;;;;29.05;43.36;97408.66;1515561;94;26034;-78
2022/07/28 10:42:12;;;;;;;6.45;2.87;;;;;;;29.16;43.35;97410.51;1513596;94;25816;-75
2022/07/28 10:44:38;;;;;;;3.65;2.80;;;;;;;29.36;43.51;97411.16;1513581;94;27390;-75
2022/07/28 10:47:08;;;;;;;3.27;2.67;;;;;;;29.44;42.34;97400.63;1535040;93;26083;-77
2022/07/28 10:49:36;;;;;;;9.08;2.80;;;;;;;29.54;42.81;97403.61;1510452;94;25850;-76
2022/07/28 10:52:05;;;;;;;4.58;2.80;;;;;;;29.72;42.39;97396.22;1483893;96;26700;-76
2022/07/28 10:54:37;;;;;;;5.22;2.83;;;;;;;29.72;42.39;97397.61;1488396;96;25837;-75
2022/07/28 10:57:05;;;;;;;;;;;;;;;29.68;41.96;97400.03;1465788;97;27461;-76
2022/07/28 11:00:05;;;;;;;2.80;2.50;;;;;;;29.73;41.16;97389.50;1454806;97;26044;-76
2022/07/28 11:02:54;;;;;;;6.05;2.67;;;;;;;29.77;41.94;97398.58;1464875;97;26033;-75
2022/07/28 11:05:40;;;;;;;6.22;2.22;;;;;;;29.61;41.78;97394.97;1452782;98;26079;-76
2022/07/28 11:08:19;;;;;;;4.28;2.58;;;;;;;29.67;41.96;97399.21;1453062;98;25387;-78
2022/07/28 11:10:50;;;;;;;6.42;2.90;;;;;;;29.53;41.20;97399.19;1438518;99;27454;-76
2022/07/28 11:13:32;;;;;;;3.02;2.58;;;;;;;29.28;41.21;97393.38;1397112;102;25895;-76
2022/07/28 11:16:20;;;;;;;4.03;2.87;;;;;;;29.31;41.30;97391.33;1393591;102;25827;-76
2022/07/28 11:19:07;;;;;;;5.12;2.98;;;;;;;29.32;41.44;97389.37;1411560;101;26046;-77
2022/07/28 11:21:35;;;;;;;5.35;2.65;;;;;;;29.49;41.93;97388.48;1442127;97;26154;-77
2022/07/28 11:24:01;;;;;;;4.55;2.67;;;;;;;29.63;41.58;97375.98;1464210;97;27592;-78
2022/07/28 11:26:34;;;;;;;4.45;2.50;;;;;;;29.65;41.54;97379.25;1469882;95;25795;-77
2022/07/28 11:29:13;;;;;;;7.08;2.50;;;;;;;29.61;41.49;97385.23;1508095;95;25861;-79
2022/07/28 11:31:51;;;;;;;4.47;2.83;;;;;;;29.66;41.11;97393.41;1508136;93;26063;-78
2022/07/28 11:34:22;;;;;;;3.27;2.52;;;;;;;29.74;41.25;97389.75;1507865;95;25595;-76
2022/07/28 11:37:11;;;;;;;4.35;2.60;;;;;;;29.79;40.91;97387.36;1473847;97;28236;-76
2022/07/28 11:39:40;;;;;;;4.58;2.77;;;;;;;29.79;41.24;97381.80;1464081;97;26142;-77
2022/07/28 11:42:28;;;;;;;2.83;2.47;;;;;;;29.91;40.96;97372.72;1465033;95;25968;-76
2022/07/28 11:44:57;;;;;;;4.22;2.40;;;;;;;29.89;40.29;97376.41;1493401;94;26711;-76